PWSweather.com
Personal Weather Stations
Station Observations
KKYCRABO2
Cedar Creek Lake 840 Ky. Hwy. 39 N, Crab Orchard, KY 40419

Cedar Creek Lake 840 Ky. Hwy. 39 NCrab Orchard, KY 40419

Lat: 37.4736234544238, Lon: -84.5120286941528

Elevation: 952

Station Type: TYCON Power TP1080WC Pro

http://kbweather.net/

High Low Average
Temperature 92.3°F33.5°C 68.4°F20.2°C 77.7°F25.4°C
Dew Point 75.2°F24.0°C 64.4°F18.0°C 68.4°F20.2°C
Winds 5.8 mph 9.3 kmh Calm Calm 1.0 mph S1.6 kmh S
Wind Gusts 8.1 mph13.0 kmh -- 2.0 mph3.2 kmh
Humidity 94% 42% 75%
Pressure 30.12 in1020.0 mb 29.94 in1013.9 mb -
Precipitation 0.00 in0.0 mm - -
Hour Temp Dew Point Humidity Winds Wind Gusts Pressure Precip Precip Rate Daily Precip Total
12:00 AM 70.3°F21.3°C 68.0°F20.0°C 91% Calm Calm -- 30.00 in1015.9 mb 0.29 in7.4 mm 0.00 in0.0 mm 0.29 in7.4 mm
12:05 AM 70.3°F21.3°C 68.0°F20.0°C 91% Calm Calm -- 30.00 in1015.9 mb 0.29 in7.4 mm 0.00 in0.0 mm 0.29 in7.4 mm
12:10 AM 70.3°F21.3°C 68.0°F20.0°C 92% Calm Calm -- 30.00 in1015.9 mb 0.29 in7.4 mm 0.00 in0.0 mm 0.29 in7.4 mm
12:15 AM 70.5°F21.4°C 68.0°F20.0°C 93% Calm Calm 1.3 mph2.1 kmh 30.00 in1015.9 mb 0.29 in7.4 mm 0.00 in0.0 mm 0.29 in7.4 mm
12:20 AM 70.5°F21.4°C 68.0°F20.0°C 94% 1.1 mph SSE1.8 kmh SSE 2.0 mph3.2 kmh 30.00 in1015.9 mb 0.29 in7.4 mm 0.00 in0.0 mm 0.29 in7.4 mm
12:25 AM 70.5°F21.4°C 69.8°F21.0°C 95% 0.9 mph S1.4 kmh S 2.0 mph3.2 kmh 30.00 in1015.9 mb 0.29 in7.4 mm 0.00 in0.0 mm 0.29 in7.4 mm
12:30 AM 70.3°F21.3°C 69.8°F21.0°C 95% 2.0 mph SSW3.2 kmh SSW 2.9 mph4.7 kmh 30.00 in1015.9 mb 0.25 in6.4 mm 0.00 in0.0 mm 0.29 in7.4 mm
12:35 AM 70.3°F21.3°C 68.0°F20.0°C 94% Calm Calm 2.9 mph4.7 kmh 30.00 in1015.9 mb 0.12 in3.0 mm 0.00 in0.0 mm 0.29 in7.4 mm
12:40 AM 70.3°F21.3°C 68.0°F20.0°C 94% Calm Calm 2.7 mph4.3 kmh 30.00 in1015.9 mb 0.04 in1.0 mm 0.00 in0.0 mm 0.29 in7.4 mm
12:45 AM 70.2°F21.2°C 68.0°F20.0°C 93% Calm Calm 2.2 mph3.5 kmh 30.00 in1015.9 mb 0.00 in0.0 mm 0.00 in0.0 mm 0.29 in7.4 mm
12:50 AM 70.2°F21.2°C 68.0°F20.0°C 93% Calm Calm 2.9 mph4.7 kmh 30.00 in1015.9 mb 0.00 in0.0 mm 0.00 in0.0 mm 0.29 in7.4 mm
12:55 AM 70.2°F21.2°C 68.0°F20.0°C 93% Calm Calm 2.9 mph4.7 kmh 30.00 in1015.9 mb 0.00 in0.0 mm 0.00 in0.0 mm 0.29 in7.4 mm
01:00 AM 70.0°F21.1°C 68.0°F20.0°C 93% Calm Calm 1.1 mph1.8 kmh 30.00 in1015.9 mb 0.00 in0.0 mm 0.00 in0.0 mm 0.29 in7.4 mm
01:05 AM 70.0°F21.1°C 68.0°F20.0°C 93% Calm Calm 1.1 mph1.8 kmh 30.00 in1015.9 mb 0.00 in0.0 mm 0.00 in0.0 mm 0.29 in7.4 mm
01:10 AM 69.8°F21.0°C 68.0°F20.0°C 93% Calm Calm 2.7 mph4.3 kmh 30.00 in1015.9 mb 0.00 in0.0 mm 0.00 in0.0 mm 0.29 in7.4 mm
01:15 AM 69.8°F21.0°C 68.0°F20.0°C 92% Calm Calm 2.7 mph4.3 kmh 30.00 in1015.9 mb 0.00 in0.0 mm 0.00 in0.0 mm 0.29 in7.4 mm
01:20 AM 69.6°F20.9°C 68.0°F20.0°C 93% Calm Calm 2.2 mph3.5 kmh 30.00 in1015.9 mb 0.00 in0.0 mm 0.00 in0.0 mm 0.29 in7.4 mm
01:25 AM 69.4°F20.8°C 66.2°F19.0°C 92% 1.6 mph S2.6 kmh S 3.1 mph5.0 kmh 30.00 in1015.9 mb 0.00 in0.0 mm 0.00 in0.0 mm 0.29 in7.4 mm
01:30 AM 69.4°F20.8°C 66.2°F19.0°C 92% Calm Calm 3.1 mph5.0 kmh 30.00 in1015.9 mb 0.00 in0.0 mm 0.00 in0.0 mm 0.29 in7.4 mm
01:35 AM 69.4°F20.8°C 66.2°F19.0°C 92% Calm Calm 1.3 mph2.1 kmh 30.00 in1015.9 mb 0.00 in0.0 mm 0.00 in0.0 mm 0.29 in7.4 mm
01:40 AM 69.3°F20.7°C 66.2°F19.0°C 92% 0.9 mph SSW1.4 kmh SSW 2.0 mph3.2 kmh 30.00 in1015.9 mb 0.00 in0.0 mm 0.00 in0.0 mm 0.29 in7.4 mm
01:45 AM 69.1°F20.6°C 66.2°F19.0°C 92% Calm Calm 2.0 mph3.2 kmh 30.00 in1015.9 mb 0.00 in0.0 mm 0.00 in0.0 mm 0.29 in7.4 mm
01:50 AM 69.1°F20.6°C 66.2°F19.0°C 92% Calm Calm 2.0 mph3.2 kmh 30.00 in1015.9 mb 0.00 in0.0 mm 0.00 in0.0 mm 0.29 in7.4 mm
01:55 AM 69.1°F20.6°C 66.2°F19.0°C 92% 1.1 mph SE1.8 kmh SE 2.2 mph3.5 kmh 30.00 in1015.9 mb 0.00 in0.0 mm 0.00 in0.0 mm 0.29 in7.4 mm
02:00 AM 68.9°F20.5°C 66.2°F19.0°C 92% Calm Calm 2.2 mph3.5 kmh 30.00 in1015.9 mb 0.00 in0.0 mm 0.00 in0.0 mm 0.29 in7.4 mm
02:05 AM 68.9°F20.5°C 66.2°F19.0°C 92% Calm Calm 0.9 mph1.4 kmh 30.00 in1015.9 mb 0.00 in0.0 mm 0.00 in0.0 mm 0.29 in7.4 mm
02:10 AM 69.1°F20.6°C 68.0°F20.0°C 93% Calm Calm 1.3 mph2.1 kmh 29.97 in1014.9 mb 0.00 in0.0 mm 0.00 in0.0 mm 0.29 in7.4 mm
02:15 AM 68.9°F20.5°C 68.0°F20.0°C 93% Calm Calm 1.3 mph2.1 kmh 29.97 in1014.9 mb 0.00 in0.0 mm 0.00 in0.0 mm 0.29 in7.4 mm
02:20 AM 68.9°F20.5°C 68.0°F20.0°C 93% Calm Calm -- 29.97 in1014.9 mb 0.00 in0.0 mm 0.00 in0.0 mm 0.29 in7.4 mm
02:25 AM 68.9°F20.5°C 68.0°F20.0°C 93% Calm Calm 2.0 mph3.2 kmh 29.97 in1014.9 mb 0.00 in0.0 mm 0.00 in0.0 mm 0.29 in7.4 mm
02:30 AM 68.7°F20.4°C 66.2°F19.0°C 93% Calm Calm 2.0 mph3.2 kmh 29.97 in1014.9 mb 0.00 in0.0 mm 0.00 in0.0 mm 0.29 in7.4 mm
02:35 AM 68.7°F20.4°C 66.2°F19.0°C 93% Calm Calm 2.2 mph3.5 kmh 29.97 in1014.9 mb 0.00 in0.0 mm 0.00 in0.0 mm 0.29 in7.4 mm
02:40 AM 68.7°F20.4°C 66.2°F19.0°C 93% Calm Calm 2.2 mph3.5 kmh 29.97 in1014.9 mb 0.00 in0.0 mm 0.00 in0.0 mm 0.29 in7.4 mm
02:45 AM 68.5°F20.3°C 66.2°F19.0°C 93% Calm Calm -- 29.97 in1014.9 mb 0.00 in0.0 mm 0.00 in0.0 mm 0.29 in7.4 mm
02:50 AM 68.7°F20.4°C 66.2°F19.0°C 94% Calm Calm -- 29.97 in1014.9 mb 0.00 in0.0 mm 0.00 in0.0 mm 0.29 in7.4 mm
02:55 AM 68.7°F20.4°C 66.2°F19.0°C 94% Calm Calm -- 29.94 in1013.9 mb 0.00 in0.0 mm 0.00 in0.0 mm 0.29 in7.4 mm
03:00 AM 68.5°F20.3°C 66.2°F19.0°C 94% Calm Calm 2.7 mph4.3 kmh 29.94 in1013.9 mb 0.00 in0.0 mm 0.00 in0.0 mm 0.29 in7.4 mm
03:05 AM 68.5°F20.3°C 66.2°F19.0°C 94% 1.1 mph SSE1.8 kmh SSE 2.7 mph4.3 kmh 29.94 in1013.9 mb 0.00 in0.0 mm 0.00 in0.0 mm 0.29 in7.4 mm
03:10 AM 68.5°F20.3°C 66.2°F19.0°C 94% Calm Calm 2.0 mph3.2 kmh 29.97 in1014.9 mb 0.00 in0.0 mm 0.00 in0.0 mm 0.29 in7.4 mm
03:15 AM 68.5°F20.3°C 66.2°F19.0°C 94% Calm Calm 2.0 mph3.2 kmh 29.97 in1014.9 mb 0.00 in0.0 mm 0.00 in0.0 mm 0.29 in7.4 mm
03:20 AM 68.5°F20.3°C 66.2°F19.0°C 94% Calm Calm 2.0 mph3.2 kmh 29.97 in1014.9 mb 0.00 in0.0 mm 0.00 in0.0 mm 0.29 in7.4 mm
03:25 AM 68.5°F20.3°C 66.2°F19.0°C 94% Calm Calm 2.0 mph3.2 kmh 29.97 in1014.9 mb 0.00 in0.0 mm 0.00 in0.0 mm 0.29 in7.4 mm
03:30 AM 68.4°F20.2°C 66.2°F19.0°C 93% Calm Calm 1.3 mph2.1 kmh 29.97 in1014.9 mb 0.00 in0.0 mm 0.00 in0.0 mm 0.29 in7.4 mm
03:35 AM 68.5°F20.3°C 66.2°F19.0°C 94% Calm Calm 1.3 mph2.1 kmh 29.97 in1014.9 mb 0.00 in0.0 mm 0.00 in0.0 mm 0.29 in7.4 mm
03:40 AM 68.5°F20.3°C 66.2°F19.0°C 94% Calm Calm -- 29.94 in1013.9 mb 0.00 in0.0 mm 0.00 in0.0 mm 0.29 in7.4 mm
03:45 AM 68.5°F20.3°C 66.2°F19.0°C 94% Calm Calm -- 29.94 in1013.9 mb 0.00 in0.0 mm 0.00 in0.0 mm 0.29 in7.4 mm
03:50 AM 68.5°F20.3°C 66.2°F19.0°C 94% Calm Calm -- 29.94 in1013.9 mb 0.00 in0.0 mm 0.00 in0.0 mm 0.29 in7.4 mm
03:55 AM 68.5°F20.3°C 66.2°F19.0°C 93% Calm Calm -- 29.94 in1013.9 mb 0.00 in0.0 mm 0.00 in0.0 mm 0.29 in7.4 mm
04:00 AM 68.5°F20.3°C 66.2°F19.0°C 93% Calm Calm -- 29.94 in1013.9 mb 0.00 in0.0 mm 0.00 in0.0 mm 0.29 in7.4 mm
04:05 AM 68.5°F20.3°C 66.2°F19.0°C 93% Calm Calm -- 29.94 in1013.9 mb 0.00 in0.0 mm 0.00 in0.0 mm 0.29 in7.4 mm
04:10 AM 68.5°F20.3°C 66.2°F19.0°C 93% Calm Calm -- 30.00 in1015.9 mb 0.00 in0.0 mm 0.00 in0.0 mm 0.29 in7.4 mm
04:15 AM 68.5°F20.3°C 66.2°F19.0°C 93% Calm Calm -- 30.00 in1015.9 mb 0.00 in0.0 mm 0.00 in0.0 mm 0.29 in7.4 mm
04:20 AM 68.5°F20.3°C 66.2°F19.0°C 93% Calm Calm -- 30.00 in1015.9 mb 0.00 in0.0 mm 0.00 in0.0 mm 0.29 in7.4 mm
04:25 AM 68.5°F20.3°C 66.2°F19.0°C 93% Calm Calm -- 29.97 in1014.9 mb 0.00 in0.0 mm 0.00 in0.0 mm 0.29 in7.4 mm
04:30 AM 68.4°F20.2°C 66.2°F19.0°C 92% Calm Calm -- 29.97 in1014.9 mb 0.00 in0.0 mm 0.00 in0.0 mm 0.29 in7.4 mm
04:35 AM 68.4°F20.2°C 66.2°F19.0°C 92% Calm Calm -- 29.97 in1014.9 mb 0.00 in0.0 mm 0.00 in0.0 mm 0.29 in7.4 mm
04:40 AM 68.4°F20.2°C 66.2°F19.0°C 92% 2.0 mph SSW3.2 kmh SSW 3.1 mph5.0 kmh 30.00 in1015.9 mb 0.00 in0.0 mm 0.00 in0.0 mm 0.29 in7.4 mm
04:45 AM 68.4°F20.2°C 66.2°F19.0°C 92% Calm Calm 3.1 mph5.0 kmh 30.00 in1015.9 mb 0.00 in0.0 mm 0.00 in0.0 mm 0.29 in7.4 mm
04:50 AM 68.4°F20.2°C 66.2°F19.0°C 92% Calm Calm 2.5 mph4.0 kmh 30.00 in1015.9 mb 0.00 in0.0 mm 0.00 in0.0 mm 0.29 in7.4 mm
04:55 AM 68.4°F20.2°C 66.2°F19.0°C 92% Calm Calm 2.5 mph4.0 kmh 30.00 in1015.9 mb 0.00 in0.0 mm 0.00 in0.0 mm 0.29 in7.4 mm
05:00 AM 68.4°F20.2°C 66.2°F19.0°C 92% Calm Calm 2.5 mph4.0 kmh 30.00 in1015.9 mb 0.00 in0.0 mm 0.00 in0.0 mm 0.29 in7.4 mm
05:05 AM 68.4°F20.2°C 66.2°F19.0°C 93% Calm Calm 2.5 mph4.0 kmh 30.00 in1015.9 mb 0.00 in0.0 mm 0.00 in0.0 mm 0.29 in7.4 mm
05:10 AM 68.4°F20.2°C 66.2°F19.0°C 92% Calm Calm 2.0 mph3.2 kmh 30.00 in1015.9 mb 0.00 in0.0 mm 0.00 in0.0 mm 0.29 in7.4 mm
05:15 AM 68.4°F20.2°C 66.2°F19.0°C 93% Calm Calm 1.1 mph1.8 kmh 30.00 in1015.9 mb 0.00 in0.0 mm 0.00 in0.0 mm 0.29 in7.4 mm
05:20 AM 68.4°F20.2°C 66.2°F19.0°C 93% Calm Calm 2.2 mph3.5 kmh 30.00 in1015.9 mb 0.00 in0.0 mm 0.00 in0.0 mm 0.29 in7.4 mm
05:25 AM 68.5°F20.3°C 66.2°F19.0°C 93% Calm Calm 2.2 mph3.5 kmh 30.03 in1016.9 mb 0.00 in0.0 mm 0.00 in0.0 mm 0.29 in7.4 mm
05:30 AM 68.5°F20.3°C 66.2°F19.0°C 93% Calm Calm 1.3 mph2.1 kmh 30.03 in1016.9 mb 0.00 in0.0 mm 0.00 in0.0 mm 0.29 in7.4 mm
05:35 AM 68.5°F20.3°C 66.2°F19.0°C 93% Calm Calm -- 30.03 in1016.9 mb 0.00 in0.0 mm 0.00 in0.0 mm 0.29 in7.4 mm
05:40 AM 68.7°F20.4°C 66.2°F19.0°C 93% Calm Calm 1.3 mph2.1 kmh 30.00 in1015.9 mb 0.00 in0.0 mm 0.00 in0.0 mm 0.29 in7.4 mm
05:45 AM 68.9°F20.5°C 68.0°F20.0°C 94% Calm Calm 1.3 mph2.1 kmh 30.00 in1015.9 mb 0.00 in0.0 mm 0.00 in0.0 mm 0.29 in7.4 mm
05:50 AM 68.9°F20.5°C 68.0°F20.0°C 93% Calm Calm -- 30.00 in1015.9 mb 0.00 in0.0 mm 0.00 in0.0 mm 0.29 in7.4 mm
05:55 AM 68.9°F20.5°C 68.0°F20.0°C 93% Calm Calm 1.1 mph1.8 kmh 30.00 in1015.9 mb 0.00 in0.0 mm 0.00 in0.0 mm 0.29 in7.4 mm
06:00 AM 69.1°F20.6°C 68.0°F20.0°C 93% 0.9 mph SSW1.4 kmh SSW 1.3 mph2.1 kmh 30.00 in1015.9 mb 0.00 in0.0 mm 0.00 in0.0 mm 0.29 in7.4 mm
06:05 AM 69.1°F20.6°C 68.0°F20.0°C 93% Calm Calm 1.3 mph2.1 kmh 30.00 in1015.9 mb 0.00 in0.0 mm 0.00 in0.0 mm 0.29 in7.4 mm
06:10 AM 69.1°F20.6°C 68.0°F20.0°C 93% Calm Calm 1.1 mph1.8 kmh 30.00 in1015.9 mb 0.00 in0.0 mm 0.00 in0.0 mm 0.29 in7.4 mm
06:15 AM 69.1°F20.6°C 68.0°F20.0°C 93% Calm Calm -- 30.00 in1015.9 mb 0.00 in0.0 mm 0.00 in0.0 mm 0.29 in7.4 mm
06:20 AM 69.3°F20.7°C 68.0°F20.0°C 93% Calm Calm 1.1 mph1.8 kmh 30.00 in1015.9 mb 0.00 in0.0 mm 0.00 in0.0 mm 0.29 in7.4 mm
06:25 AM 69.3°F20.7°C 68.0°F20.0°C 93% Calm Calm 1.1 mph1.8 kmh 29.97 in1014.9 mb 0.00 in0.0 mm 0.00 in0.0 mm 0.29 in7.4 mm
06:30 AM 69.4°F20.8°C 68.0°F20.0°C 93% Calm Calm 1.3 mph2.1 kmh 29.97 in1014.9 mb 0.00 in0.0 mm 0.00 in0.0 mm 0.29 in7.4 mm
06:35 AM 69.4°F20.8°C 68.0°F20.0°C 93% Calm Calm 2.0 mph3.2 kmh 29.97 in1014.9 mb 0.00 in0.0 mm 0.00 in0.0 mm 0.29 in7.4 mm
06:40 AM 69.4°F20.8°C 68.0°F20.0°C 93% Calm Calm 2.0 mph3.2 kmh 30.00 in1015.9 mb 0.00 in0.0 mm 0.00 in0.0 mm 0.29 in7.4 mm
06:45 AM 69.4°F20.8°C 68.0°F20.0°C 93% Calm Calm 0.9 mph1.4 kmh 30.00 in1015.9 mb 0.00 in0.0 mm 0.00 in0.0 mm 0.29 in7.4 mm
06:50 AM 69.6°F20.9°C 68.0°F20.0°C 93% Calm Calm 0.9 mph1.4 kmh 30.00 in1015.9 mb 0.00 in0.0 mm 0.00 in0.0 mm 0.29 in7.4 mm
06:55 AM 69.6°F20.9°C 68.0°F20.0°C 93% Calm Calm 1.3 mph2.1 kmh 30.00 in1015.9 mb 0.00 in0.0 mm 0.00 in0.0 mm 0.29 in7.4 mm
07:00 AM 69.6°F20.9°C 68.0°F20.0°C 93% Calm Calm 1.3 mph2.1 kmh 30.00 in1015.9 mb 0.00 in0.0 mm 0.00 in0.0 mm 0.29 in7.4 mm
07:05 AM 69.6°F20.9°C 68.0°F20.0°C 93% Calm Calm 1.3 mph2.1 kmh 30.00 in1015.9 mb 0.00 in0.0 mm 0.00 in0.0 mm 0.29 in7.4 mm
07:10 AM 69.8°F21.0°C 68.0°F20.0°C 93% Calm Calm -- 30.00 in1015.9 mb 0.00 in0.0 mm 0.00 in0.0 mm 0.29 in7.4 mm
07:15 AM 69.8°F21.0°C 68.0°F20.0°C 93% Calm Calm -- 30.00 in1015.9 mb 0.00 in0.0 mm 0.00 in0.0 mm 0.29 in7.4 mm
07:20 AM 70.0°F21.1°C 68.0°F20.0°C 93% Calm Calm -- 30.00 in1015.9 mb 0.00 in0.0 mm 0.00 in0.0 mm 0.29 in7.4 mm
07:25 AM 70.2°F21.2°C 68.0°F20.0°C 93% Calm Calm -- 30.03 in1016.9 mb 0.00 in0.0 mm 0.00 in0.0 mm 0.29 in7.4 mm
07:30 AM 70.2°F21.2°C 68.0°F20.0°C 93% Calm Calm -- 30.03 in1016.9 mb 0.00 in0.0 mm 0.00 in0.0 mm 0.29 in7.4 mm
07:35 AM 70.3°F21.3°C 68.0°F20.0°C 93% Calm Calm -- 30.03 in1016.9 mb 0.00 in0.0 mm 0.00 in0.0 mm 0.29 in7.4 mm
07:40 AM 70.5°F21.4°C 68.0°F20.0°C 93% Calm Calm 1.3 mph2.1 kmh 30.03 in1016.9 mb 0.00 in0.0 mm 0.00 in0.0 mm 0.29 in7.4 mm
07:45 AM 70.5°F21.4°C 68.0°F20.0°C 93% Calm Calm 1.3 mph2.1 kmh 30.03 in1016.9 mb 0.00 in0.0 mm 0.00 in0.0 mm 0.29 in7.4 mm
07:50 AM 70.7°F21.5°C 68.0°F20.0°C 92% Calm Calm -- 30.03 in1016.9 mb 0.00 in0.0 mm 0.00 in0.0 mm 0.29 in7.4 mm
07:55 AM 70.9°F21.6°C 68.0°F20.0°C 92% Calm Calm -- 30.03 in1016.9 mb 0.00 in0.0 mm 0.00 in0.0 mm 0.29 in7.4 mm
08:00 AM 71.1°F21.7°C 68.0°F20.0°C 92% Calm Calm 1.6 mph2.6 kmh 30.03 in1016.9 mb 0.00 in0.0 mm 0.00 in0.0 mm 0.29 in7.4 mm
08:05 AM 71.1°F21.7°C 68.0°F20.0°C 92% 1.1 mph NW1.8 kmh NW 2.9 mph4.7 kmh 30.03 in1016.9 mb 0.00 in0.0 mm 0.00 in0.0 mm 0.29 in7.4 mm
08:10 AM 71.2°F21.8°C 68.0°F20.0°C 92% Calm Calm 2.9 mph4.7 kmh 30.03 in1016.9 mb 0.00 in0.0 mm 0.00 in0.0 mm 0.29 in7.4 mm
08:15 AM 71.4°F21.9°C 69.8°F21.0°C 92% Calm Calm 2.5 mph4.0 kmh 30.03 in1016.9 mb 0.00 in0.0 mm 0.00 in0.0 mm 0.29 in7.4 mm
08:20 AM 71.6°F22.0°C 69.8°F21.0°C 92% 2.7 mph WNW4.3 kmh WNW 3.4 mph5.5 kmh 30.03 in1016.9 mb 0.00 in0.0 mm 0.00 in0.0 mm 0.29 in7.4 mm
08:25 AM 71.6°F22.0°C 69.8°F21.0°C 91% Calm Calm 3.8 mph6.1 kmh 30.06 in1017.9 mb 0.00 in0.0 mm 0.00 in0.0 mm 0.29 in7.4 mm
08:30 AM 71.8°F22.1°C 69.8°F21.0°C 91% 0.9 mph WNW1.4 kmh WNW 3.8 mph6.1 kmh 30.06 in1017.9 mb 0.00 in0.0 mm 0.00 in0.0 mm 0.29 in7.4 mm
08:35 AM 72.1°F22.3°C 69.8°F21.0°C 91% 3.1 mph WNW5.0 kmh WNW 4.7 mph7.6 kmh 30.06 in1017.9 mb 0.00 in0.0 mm 0.00 in0.0 mm 0.29 in7.4 mm
08:40 AM 72.5°F22.5°C 69.8°F21.0°C 91% 2.9 mph WNW4.7 kmh WNW 4.9 mph7.9 kmh 30.06 in1017.9 mb 0.00 in0.0 mm 0.00 in0.0 mm 0.29 in7.4 mm
08:45 AM 72.9°F22.7°C 69.8°F21.0°C 90% 1.3 mph WNW2.1 kmh WNW 4.9 mph7.9 kmh 30.06 in1017.9 mb 0.00 in0.0 mm 0.00 in0.0 mm 0.29 in7.4 mm
08:50 AM 73.6°F23.1°C 69.8°F21.0°C 88% 2.0 mph WNW3.2 kmh WNW 4.3 mph6.9 kmh 30.06 in1017.9 mb 0.00 in0.0 mm 0.00 in0.0 mm 0.29 in7.4 mm
08:55 AM 73.8°F23.2°C 69.8°F21.0°C 88% Calm Calm 4.0 mph6.4 kmh 30.06 in1017.9 mb 0.00 in0.0 mm 0.00 in0.0 mm 0.29 in7.4 mm
09:00 AM 74.1°F23.4°C 69.8°F21.0°C 87% 3.1 mph WNW5.0 kmh WNW 4.7 mph7.6 kmh 30.06 in1017.9 mb 0.00 in0.0 mm 0.00 in0.0 mm 0.29 in7.4 mm
09:05 AM 74.3°F23.5°C 69.8°F21.0°C 86% 0.9 mph WNW1.4 kmh WNW 4.7 mph7.6 kmh 30.06 in1017.9 mb 0.00 in0.0 mm 0.00 in0.0 mm 0.29 in7.4 mm
09:10 AM 74.3°F23.5°C 69.8°F21.0°C 85% 2.0 mph WNW3.2 kmh WNW 4.0 mph6.4 kmh 30.06 in1017.9 mb 0.00 in0.0 mm 0.00 in0.0 mm 0.29 in7.4 mm
09:15 AM 75.2°F24.0°C 69.8°F21.0°C 84% 2.0 mph WNW3.2 kmh WNW 3.4 mph5.5 kmh 30.06 in1017.9 mb 0.00 in0.0 mm 0.00 in0.0 mm 0.29 in7.4 mm
09:20 AM 75.7°F24.3°C 71.6°F22.0°C 84% 1.1 mph WNW1.8 kmh WNW 4.7 mph7.6 kmh 30.06 in1017.9 mb 0.00 in0.0 mm 0.00 in0.0 mm 0.29 in7.4 mm
09:25 AM 75.9°F24.4°C 69.8°F21.0°C 82% 0.9 mph WNW1.4 kmh WNW 4.7 mph7.6 kmh 30.06 in1017.9 mb 0.00 in0.0 mm 0.00 in0.0 mm 0.29 in7.4 mm
09:30 AM 75.9°F24.4°C 69.8°F21.0°C 81% 3.6 mph WNW5.8 kmh WNW 4.0 mph6.4 kmh 30.06 in1017.9 mb 0.00 in0.0 mm 0.00 in0.0 mm 0.29 in7.4 mm
09:35 AM 75.9°F24.4°C 69.8°F21.0°C 81% Calm Calm 5.4 mph8.7 kmh 30.06 in1017.9 mb 0.00 in0.0 mm 0.00 in0.0 mm 0.29 in7.4 mm
09:40 AM 75.9°F24.4°C 69.8°F21.0°C 81% 2.9 mph WNW4.7 kmh WNW 5.6 mph9.0 kmh 30.06 in1017.9 mb 0.00 in0.0 mm 0.00 in0.0 mm 0.29 in7.4 mm
09:45 AM 76.3°F24.6°C 69.8°F21.0°C 80% 2.0 mph WNW3.2 kmh WNW 8.1 mph13.0 kmh 30.06 in1017.9 mb 0.00 in0.0 mm 0.00 in0.0 mm 0.29 in7.4 mm
09:50 AM 76.3°F24.6°C 69.8°F21.0°C 79% 2.9 mph WNW4.7 kmh WNW 8.1 mph13.0 kmh 30.06 in1017.9 mb 0.00 in0.0 mm 0.00 in0.0 mm 0.29 in7.4 mm
09:55 AM 76.1°F24.5°C 69.8°F21.0°C 78% 2.9 mph WNW4.7 kmh WNW 7.6 mph12.2 kmh 30.03 in1016.9 mb 0.00 in0.0 mm 0.00 in0.0 mm 0.29 in7.4 mm
10:00 AM 76.1°F24.5°C 69.8°F21.0°C 78% 2.5 mph WNW4.0 kmh WNW 7.4 mph11.9 kmh 30.03 in1016.9 mb 0.00 in0.0 mm 0.00 in0.0 mm 0.29 in7.4 mm
10:05 AM 76.3°F24.6°C 69.8°F21.0°C 79% 3.1 mph WNW5.0 kmh WNW 7.4 mph11.9 kmh 30.03 in1016.9 mb 0.00 in0.0 mm 0.00 in0.0 mm 0.29 in7.4 mm
10:10 AM 76.1°F24.5°C 69.8°F21.0°C 79% 1.3 mph WNW2.1 kmh WNW 5.6 mph9.0 kmh 30.06 in1017.9 mb 0.00 in0.0 mm 0.00 in0.0 mm 0.29 in7.4 mm
10:15 AM 76.3°F24.6°C 69.8°F21.0°C 78% 5.8 mph WNW9.3 kmh WNW 6.5 mph10.5 kmh 30.06 in1017.9 mb 0.00 in0.0 mm 0.00 in0.0 mm 0.29 in7.4 mm
10:20 AM 76.8°F24.9°C 69.8°F21.0°C 79% 0.9 mph WNW1.4 kmh WNW 6.5 mph10.5 kmh 30.06 in1017.9 mb 0.00 in0.0 mm 0.00 in0.0 mm 0.29 in7.4 mm
10:25 AM 77.0°F25.0°C 69.8°F21.0°C 78% 1.6 mph WNW2.6 kmh WNW 5.8 mph9.3 kmh 30.06 in1017.9 mb 0.00 in0.0 mm 0.00 in0.0 mm 0.29 in7.4 mm
10:30 AM 77.2°F25.1°C 69.8°F21.0°C 76% 1.6 mph WNW2.6 kmh WNW 4.3 mph6.9 kmh 30.06 in1017.9 mb 0.00 in0.0 mm 0.00 in0.0 mm 0.29 in7.4 mm
10:35 AM 77.4°F25.2°C 69.8°F21.0°C 76% 2.9 mph WNW4.7 kmh WNW 5.8 mph9.3 kmh 30.06 in1017.9 mb 0.00 in0.0 mm 0.00 in0.0 mm 0.29 in7.4 mm
10:40 AM 77.5°F25.3°C 69.8°F21.0°C 76% 2.5 mph WNW4.0 kmh WNW 7.6 mph12.2 kmh 30.06 in1017.9 mb 0.00 in0.0 mm 0.00 in0.0 mm 0.29 in7.4 mm
10:45 AM 77.5°F25.3°C 69.8°F21.0°C 75% 1.6 mph WNW2.6 kmh WNW 7.6 mph12.2 kmh 30.06 in1017.9 mb 0.00 in0.0 mm 0.00 in0.0 mm 0.29 in7.4 mm
10:50 AM 77.7°F25.4°C 69.8°F21.0°C 75% 1.6 mph WNW2.6 kmh WNW 6.3 mph10.1 kmh 30.06 in1017.9 mb 0.00 in0.0 mm 0.00 in0.0 mm 0.29 in7.4 mm
10:55 AM 77.9°F25.5°C 69.8°F21.0°C 75% 0.9 mph WNW1.4 kmh WNW 6.3 mph10.1 kmh 30.06 in1017.9 mb 0.00 in0.0 mm 0.00 in0.0 mm 0.29 in7.4 mm
11:00 AM 78.1°F25.6°C 69.8°F21.0°C 74% 2.5 mph WNW4.0 kmh WNW 6.3 mph10.1 kmh 30.06 in1017.9 mb 0.00 in0.0 mm 0.00 in0.0 mm 0.29 in7.4 mm
11:05 AM 78.3°F25.7°C 69.8°F21.0°C 74% 2.7 mph WNW4.3 kmh WNW 6.3 mph10.1 kmh 30.06 in1017.9 mb 0.00 in0.0 mm 0.00 in0.0 mm 0.29 in7.4 mm
11:10 AM 78.3°F25.7°C 69.8°F21.0°C 74% 2.2 mph WNW3.5 kmh WNW 6.0 mph9.7 kmh 30.06 in1017.9 mb 0.00 in0.0 mm 0.00 in0.0 mm 0.29 in7.4 mm
11:15 AM 78.8°F26.0°C 69.8°F21.0°C 73% 2.5 mph WNW4.0 kmh WNW 7.2 mph11.6 kmh 30.06 in1017.9 mb 0.00 in0.0 mm 0.00 in0.0 mm 0.29 in7.4 mm
11:20 AM 79.3°F26.3°C 69.8°F21.0°C 73% 1.3 mph WNW2.1 kmh WNW 7.2 mph11.6 kmh 30.06 in1017.9 mb 0.00 in0.0 mm 0.00 in0.0 mm 0.29 in7.4 mm
11:25 AM 79.2°F26.2°C 69.8°F21.0°C 73% 0.9 mph WNW1.4 kmh WNW 5.4 mph8.7 kmh 30.06 in1017.9 mb 0.00 in0.0 mm 0.00 in0.0 mm 0.29 in7.4 mm
11:30 AM 79.5°F26.4°C 69.8°F21.0°C 73% Calm Calm 5.4 mph8.7 kmh 30.06 in1017.9 mb 0.00 in0.0 mm 0.00 in0.0 mm 0.29 in7.4 mm
11:35 AM 79.7°F26.5°C 71.6°F22.0°C 72% 2.0 mph WNW3.2 kmh WNW 4.7 mph7.6 kmh 30.06 in1017.9 mb 0.00 in0.0 mm 0.00 in0.0 mm 0.29 in7.4 mm
11:40 AM 79.7°F26.5°C 71.6°F22.0°C 72% Calm Calm 4.7 mph7.6 kmh 30.06 in1017.9 mb 0.00 in0.0 mm 0.00 in0.0 mm 0.29 in7.4 mm
11:45 AM 80.2°F26.8°C 69.8°F21.0°C 71% 2.7 mph WNW4.3 kmh WNW 4.0 mph6.4 kmh 30.06 in1017.9 mb 0.00 in0.0 mm 0.00 in0.0 mm 0.29 in7.4 mm
11:50 AM 80.6°F27.0°C 69.8°F21.0°C 70% 2.7 mph WNW4.3 kmh WNW 3.8 mph6.1 kmh 30.06 in1017.9 mb 0.00 in0.0 mm 0.00 in0.0 mm 0.29 in7.4 mm
11:55 AM 81.9°F27.7°C 71.6°F22.0°C 71% Calm Calm 3.8 mph6.1 kmh 30.06 in1017.9 mb 0.00 in0.0 mm 0.00 in0.0 mm 0.29 in7.4 mm
12:00 PM 82.4°F28.0°C 71.6°F22.0°C 67% 3.6 mph WNW5.8 kmh WNW 4.9 mph7.9 kmh 30.06 in1017.9 mb 0.00 in0.0 mm 0.00 in0.0 mm 0.29 in7.4 mm
12:05 PM 83.5°F28.6°C 71.6°F22.0°C 67% 2.0 mph WNW3.2 kmh WNW 6.5 mph10.5 kmh 30.06 in1017.9 mb 0.00 in0.0 mm 0.00 in0.0 mm 0.29 in7.4 mm
12:10 PM 84.4°F29.1°C 71.6°F22.0°C 65% 3.1 mph WNW5.0 kmh WNW 6.5 mph10.5 kmh 30.09 in1019.0 mb 0.00 in0.0 mm 0.00 in0.0 mm 0.29 in7.4 mm
12:15 PM 85.3°F29.6°C 71.6°F22.0°C 62% 1.3 mph WNW2.1 kmh WNW 5.4 mph8.7 kmh 30.09 in1019.0 mb 0.00 in0.0 mm 0.00 in0.0 mm 0.29 in7.4 mm
12:20 PM 86.4°F30.2°C 71.6°F22.0°C 62% 2.0 mph WNW3.2 kmh WNW 4.7 mph7.6 kmh 30.09 in1019.0 mb 0.00 in0.0 mm 0.00 in0.0 mm 0.29 in7.4 mm
12:25 PM 87.1°F30.6°C 71.6°F22.0°C 61% 2.0 mph WNW3.2 kmh WNW 3.4 mph5.5 kmh 30.06 in1017.9 mb 0.00 in0.0 mm 0.00 in0.0 mm 0.29 in7.4 mm
12:30 PM 87.3°F30.7°C 71.6°F22.0°C 59% 1.1 mph WNW1.8 kmh WNW 3.4 mph5.5 kmh 30.06 in1017.9 mb 0.00 in0.0 mm 0.00 in0.0 mm 0.29 in7.4 mm
12:35 PM 88.5°F31.4°C 73.4°F23.0°C 59% 1.3 mph WNW2.1 kmh WNW 3.4 mph5.5 kmh 30.06 in1017.9 mb 0.00 in0.0 mm 0.00 in0.0 mm 0.29 in7.4 mm
12:40 PM 89.1°F31.7°C 73.4°F23.0°C 59% 1.6 mph NNW2.6 kmh NNW 3.1 mph5.0 kmh 30.06 in1017.9 mb 0.00 in0.0 mm 0.00 in0.0 mm 0.29 in7.4 mm
12:45 PM 90.1°F32.3°C 73.4°F23.0°C 58% 1.6 mph NNW2.6 kmh NNW 3.1 mph5.0 kmh 30.06 in1017.9 mb 0.00 in0.0 mm 0.00 in0.0 mm 0.29 in7.4 mm
12:50 PM 90.3°F32.4°C 71.6°F22.0°C 55% 2.9 mph NW4.7 kmh NW 4.5 mph7.2 kmh 30.06 in1017.9 mb 0.00 in0.0 mm 0.00 in0.0 mm 0.29 in7.4 mm
12:55 PM 90.1°F32.3°C 71.6°F22.0°C 54% 2.0 mph WNW3.2 kmh WNW 5.6 mph9.0 kmh 30.06 in1017.9 mb 0.00 in0.0 mm 0.00 in0.0 mm 0.29 in7.4 mm
01:00 PM 90.5°F32.5°C 71.6°F22.0°C 52% 3.6 mph WNW5.8 kmh WNW 5.6 mph9.0 kmh 30.06 in1017.9 mb 0.00 in0.0 mm 0.00 in0.0 mm 0.29 in7.4 mm
01:05 PM 90.7°F32.6°C 71.6°F22.0°C 53% 2.7 mph WNW4.3 kmh WNW 4.9 mph7.9 kmh 30.06 in1017.9 mb 0.00 in0.0 mm 0.00 in0.0 mm 0.29 in7.4 mm
01:10 PM 90.5°F32.5°C 71.6°F22.0°C 52% 2.7 mph WNW4.3 kmh WNW 4.9 mph7.9 kmh 30.06 in1017.9 mb 0.00 in0.0 mm 0.00 in0.0 mm 0.29 in7.4 mm
01:15 PM 91.2°F32.9°C 75.2°F24.0°C 58% Calm Calm 4.9 mph7.9 kmh 30.06 in1017.9 mb 0.00 in0.0 mm 0.00 in0.0 mm 0.29 in7.4 mm
01:20 PM 91.6°F33.1°C 73.4°F23.0°C 54% 0.9 mph WNW1.4 kmh WNW 3.8 mph6.1 kmh 30.06 in1017.9 mb 0.00 in0.0 mm 0.00 in0.0 mm 0.29 in7.4 mm
01:25 PM 90.7°F32.6°C 71.6°F22.0°C 51% 3.1 mph NW5.0 kmh NW 5.8 mph9.3 kmh 30.06 in1017.9 mb 0.00 in0.0 mm 0.00 in0.0 mm 0.29 in7.4 mm
01:30 PM 88.9°F31.6°C 69.8°F21.0°C 53% 1.6 mph NW2.6 kmh NW 5.8 mph9.3 kmh 30.06 in1017.9 mb 0.00 in0.0 mm 0.00 in0.0 mm 0.29 in7.4 mm
01:35 PM 86.5°F30.3°C 68.0°F20.0°C 55% 0.9 mph NW1.4 kmh NW 2.9 mph4.7 kmh 30.06 in1017.9 mb 0.00 in0.0 mm 0.00 in0.0 mm 0.29 in7.4 mm
01:40 PM 87.4°F30.8°C 69.8°F21.0°C 57% Calm Calm 2.5 mph4.0 kmh 30.06 in1017.9 mb 0.00 in0.0 mm 0.00 in0.0 mm 0.29 in7.4 mm
01:45 PM 89.2°F31.8°C 71.6°F22.0°C 55% 1.1 mph WNW1.8 kmh WNW 2.5 mph4.0 kmh 30.06 in1017.9 mb 0.00 in0.0 mm 0.00 in0.0 mm 0.29 in7.4 mm
01:50 PM 87.1°F30.6°C 69.8°F21.0°C 56% Calm Calm 2.2 mph3.5 kmh 30.06 in1017.9 mb 0.00 in0.0 mm 0.00 in0.0 mm 0.29 in7.4 mm
01:55 PM 86.4°F30.2°C 71.6°F22.0°C 59% Calm Calm 2.0 mph3.2 kmh 30.03 in1016.9 mb 0.00 in0.0 mm 0.00 in0.0 mm 0.29 in7.4 mm
02:00 PM 87.1°F30.6°C 71.6°F22.0°C 59% Calm Calm 1.6 mph2.6 kmh 30.03 in1016.9 mb 0.00 in0.0 mm 0.00 in0.0 mm 0.29 in7.4 mm
02:05 PM 87.8°F31.0°C 73.4°F23.0°C 60% Calm Calm 1.6 mph2.6 kmh 30.03 in1016.9 mb 0.00 in0.0 mm 0.00 in0.0 mm 0.29 in7.4 mm
02:10 PM 88.3°F31.3°C 71.6°F22.0°C 56% 1.6 mph NW2.6 kmh NW 2.5 mph4.0 kmh 30.06 in1017.9 mb 0.00 in0.0 mm 0.00 in0.0 mm 0.29 in7.4 mm
02:15 PM 89.6°F32.0°C 71.6°F22.0°C 56% 0.9 mph NW1.4 kmh NW 4.9 mph7.9 kmh 30.06 in1017.9 mb 0.00 in0.0 mm 0.00 in0.0 mm 0.29 in7.4 mm
02:20 PM 88.3°F31.3°C 71.6°F22.0°C 56% Calm Calm 4.9 mph7.9 kmh 30.06 in1017.9 mb 0.00 in0.0 mm 0.00 in0.0 mm 0.29 in7.4 mm
02:25 PM 88.0°F31.1°C 69.8°F21.0°C 56% Calm Calm -- 30.06 in1017.9 mb 0.00 in0.0 mm 0.00 in0.0 mm 0.29 in7.4 mm
02:30 PM 87.8°F31.0°C 69.8°F21.0°C 55% Calm Calm 1.6 mph2.6 kmh 30.06 in1017.9 mb 0.00 in0.0 mm 0.00 in0.0 mm 0.29 in7.4 mm
02:35 PM 88.2°F31.2°C 71.6°F22.0°C 57% 1.1 mph WNW1.8 kmh WNW 3.4 mph5.5 kmh 30.06 in1017.9 mb 0.00 in0.0 mm 0.00 in0.0 mm 0.29 in7.4 mm
02:40 PM 88.3°F31.3°C 69.8°F21.0°C 54% Calm Calm 3.4 mph5.5 kmh 30.06 in1017.9 mb 0.00 in0.0 mm 0.00 in0.0 mm 0.29 in7.4 mm
02:45 PM 89.4°F31.9°C 71.6°F22.0°C 55% 0.9 mph NW1.4 kmh NW 2.5 mph4.0 kmh 30.06 in1017.9 mb 0.00 in0.0 mm 0.00 in0.0 mm 0.29 in7.4 mm
02:50 PM 90.1°F32.3°C 71.6°F22.0°C 55% 2.2 mph NW3.5 kmh NW 3.1 mph5.0 kmh 30.06 in1017.9 mb 0.00 in0.0 mm 0.00 in0.0 mm 0.29 in7.4 mm
02:55 PM 90.5°F32.5°C 71.6°F22.0°C 53% 2.0 mph NW3.2 kmh NW 3.1 mph5.0 kmh 30.06 in1017.9 mb 0.00 in0.0 mm 0.00 in0.0 mm 0.29 in7.4 mm
03:00 PM 88.5°F31.4°C 69.8°F21.0°C 53% Calm Calm 3.1 mph5.0 kmh 30.06 in1017.9 mb 0.00 in0.0 mm 0.00 in0.0 mm 0.29 in7.4 mm
03:05 PM 88.3°F31.3°C 69.8°F21.0°C 53% 0.9 mph NW1.4 kmh NW 2.9 mph4.7 kmh 30.06 in1017.9 mb 0.00 in0.0 mm 0.00 in0.0 mm 0.29 in7.4 mm
03:10 PM 89.1°F31.7°C 69.8°F21.0°C 53% 1.1 mph WNW1.8 kmh WNW 3.4 mph5.5 kmh 30.03 in1016.9 mb 0.00 in0.0 mm 0.00 in0.0 mm 0.29 in7.4 mm
03:15 PM 90.1°F32.3°C 69.8°F21.0°C 51% 1.6 mph NW2.6 kmh NW 3.4 mph5.5 kmh 30.03 in1016.9 mb 0.00 in0.0 mm 0.00 in0.0 mm 0.29 in7.4 mm
03:20 PM 90.3°F32.4°C 69.8°F21.0°C 50% 1.3 mph WNW2.1 kmh WNW 3.4 mph5.5 kmh 30.03 in1016.9 mb 0.00 in0.0 mm 0.00 in0.0 mm 0.29 in7.4 mm
03:25 PM 91.0°F32.8°C 69.8°F21.0°C 50% 2.2 mph WNW3.5 kmh WNW 3.1 mph5.0 kmh 30.06 in1017.9 mb 0.00 in0.0 mm 0.00 in0.0 mm 0.29 in7.4 mm
03:30 PM 91.6°F33.1°C 69.8°F21.0°C 47% 2.2 mph NW3.5 kmh NW 4.9 mph7.9 kmh 30.06 in1017.9 mb 0.00 in0.0 mm 0.00 in0.0 mm 0.29 in7.4 mm
03:35 PM 91.4°F33.0°C 69.8°F21.0°C 49% Calm Calm 4.9 mph7.9 kmh 30.06 in1017.9 mb 0.00 in0.0 mm 0.00 in0.0 mm 0.29 in7.4 mm
03:40 PM 90.9°F32.7°C 69.8°F21.0°C 48% 1.1 mph NW1.8 kmh NW 3.8 mph6.1 kmh 30.06 in1017.9 mb 0.00 in0.0 mm 0.00 in0.0 mm 0.29 in7.4 mm
03:45 PM 91.4°F33.0°C 68.0°F20.0°C 46% Calm Calm 3.8 mph6.1 kmh 30.06 in1017.9 mb 0.00 in0.0 mm 0.00 in0.0 mm 0.29 in7.4 mm
03:50 PM 91.8°F33.2°C 68.0°F20.0°C 46% Calm Calm 4.0 mph6.4 kmh 30.06 in1017.9 mb 0.00 in0.0 mm 0.00 in0.0 mm 0.29 in7.4 mm
03:55 PM 92.3°F33.5°C 69.8°F21.0°C 46% 3.4 mph WNW5.5 kmh WNW 5.8 mph9.3 kmh 30.06 in1017.9 mb 0.00 in0.0 mm 0.00 in0.0 mm 0.29 in7.4 mm
04:00 PM 92.3°F33.5°C 66.2°F19.0°C 43% 2.5 mph NW4.0 kmh NW 5.8 mph9.3 kmh 30.06 in1017.9 mb 0.00 in0.0 mm 0.00 in0.0 mm 0.29 in7.4 mm
04:05 PM 92.1°F33.4°C 68.0°F20.0°C 45% Calm Calm 3.1 mph5.0 kmh 30.06 in1017.9 mb 0.00 in0.0 mm 0.00 in0.0 mm 0.29 in7.4 mm
04:10 PM 91.6°F33.1°C 66.2°F19.0°C 43% 2.5 mph NW4.0 kmh NW 4.3 mph6.9 kmh 30.06 in1017.9 mb 0.00 in0.0 mm 0.00 in0.0 mm 0.29 in7.4 mm
04:15 PM 91.9°F33.3°C 66.2°F19.0°C 43% 2.9 mph NW4.7 kmh NW 4.7 mph7.6 kmh 30.06 in1017.9 mb 0.00 in0.0 mm 0.00 in0.0 mm 0.29 in7.4 mm
04:20 PM 92.3°F33.5°C 66.2°F19.0°C 43% 1.3 mph NW2.1 kmh NW 4.7 mph7.6 kmh 30.06 in1017.9 mb 0.00 in0.0 mm 0.00 in0.0 mm 0.29 in7.4 mm
04:25 PM 91.4°F33.0°C 66.2°F19.0°C 42% Calm Calm 3.8 mph6.1 kmh 30.06 in1017.9 mb 0.00 in0.0 mm 0.00 in0.0 mm 0.29 in7.4 mm
04:30 PM 90.0°F32.2°C 66.2°F19.0°C 44% Calm Calm 2.0 mph3.2 kmh 30.06 in1017.9 mb 0.00 in0.0 mm 0.00 in0.0 mm 0.29 in7.4 mm
04:35 PM 89.4°F31.9°C 66.2°F19.0°C 44% Calm Calm 4.0 mph6.4 kmh 30.06 in1017.9 mb 0.00 in0.0 mm 0.00 in0.0 mm 0.29 in7.4 mm
04:40 PM 90.5°F32.5°C 68.0°F20.0°C 45% 1.3 mph NW2.1 kmh NW 4.0 mph6.4 kmh 30.06 in1017.9 mb 0.00 in0.0 mm 0.00 in0.0 mm 0.29 in7.4 mm
04:45 PM 90.7°F32.6°C 68.0°F20.0°C 45% 0.9 mph NW1.4 kmh NW 2.7 mph4.3 kmh 30.06 in1017.9 mb 0.00 in0.0 mm 0.00 in0.0 mm 0.29 in7.4 mm
04:50 PM 91.4°F33.0°C 68.0°F20.0°C 44% 3.1 mph WNW5.0 kmh WNW 3.8 mph6.1 kmh 30.06 in1017.9 mb 0.00 in0.0 mm 0.00 in0.0 mm 0.29 in7.4 mm
04:55 PM 91.4°F33.0°C 68.0°F20.0°C 44% 2.0 mph WNW3.2 kmh WNW 3.8 mph6.1 kmh 30.06 in1017.9 mb 0.00 in0.0 mm 0.00 in0.0 mm 0.29 in7.4 mm
05:00 PM 91.8°F33.2°C 68.0°F20.0°C 45% Calm Calm 3.8 mph6.1 kmh 30.06 in1017.9 mb 0.00 in0.0 mm 0.00 in0.0 mm 0.29 in7.4 mm
05:05 PM 91.8°F33.2°C 68.0°F20.0°C 44% 2.9 mph WNW4.7 kmh WNW 5.8 mph9.3 kmh 30.06 in1017.9 mb 0.00 in0.0 mm 0.00 in0.0 mm 0.29 in7.4 mm
05:10 PM 91.4°F33.0°C 68.0°F20.0°C 44% 3.8 mph WNW6.1 kmh WNW 6.5 mph10.5 kmh 30.03 in1016.9 mb 0.00 in0.0 mm 0.00 in0.0 mm 0.29 in7.4 mm
05:15 PM 90.3°F32.4°C 66.2°F19.0°C 44% 2.2 mph WNW3.5 kmh WNW 6.5 mph10.5 kmh 30.03 in1016.9 mb 0.00 in0.0 mm 0.00 in0.0 mm 0.29 in7.4 mm
05:20 PM 89.2°F31.8°C 66.2°F19.0°C 45% 1.1 mph NW1.8 kmh NW 5.6 mph9.0 kmh 30.03 in1016.9 mb 0.00 in0.0 mm 0.00 in0.0 mm 0.29 in7.4 mm
05:25 PM 88.5°F31.4°C 66.2°F19.0°C 46% 1.1 mph NW1.8 kmh NW 4.0 mph6.4 kmh 30.03 in1016.9 mb 0.00 in0.0 mm 0.00 in0.0 mm 0.29 in7.4 mm
05:30 PM 88.0°F31.1°C 64.4°F18.0°C 46% Calm Calm 4.0 mph6.4 kmh 30.03 in1016.9 mb 0.00 in0.0 mm 0.00 in0.0 mm 0.29 in7.4 mm
05:35 PM 87.4°F30.8°C 64.4°F18.0°C 47% 1.6 mph NW2.6 kmh NW 3.8 mph6.1 kmh 30.03 in1016.9 mb 0.00 in0.0 mm 0.00 in0.0 mm 0.29 in7.4 mm
05:40 PM 86.5°F30.3°C 64.4°F18.0°C 48% 1.3 mph NW2.1 kmh NW 4.3 mph6.9 kmh 30.06 in1017.9 mb 0.00 in0.0 mm 0.00 in0.0 mm 0.29 in7.4 mm
05:45 PM 86.0°F30.0°C 64.4°F18.0°C 48% Calm Calm 4.3 mph6.9 kmh 30.06 in1017.9 mb 0.00 in0.0 mm 0.00 in0.0 mm 0.29 in7.4 mm
05:50 PM 85.6°F29.8°C 64.4°F18.0°C 50% Calm Calm 1.6 mph2.6 kmh 30.06 in1017.9 mb 0.00 in0.0 mm 0.00 in0.0 mm 0.29 in7.4 mm
05:55 PM 85.5°F29.7°C 64.4°F18.0°C 50% Calm Calm 0.9 mph1.4 kmh 30.03 in1016.9 mb 0.00 in0.0 mm 0.00 in0.0 mm 0.29 in7.4 mm
06:00 PM 85.3°F29.6°C 66.2°F19.0°C 53% Calm Calm 2.5 mph4.0 kmh 30.03 in1016.9 mb 0.00 in0.0 mm 0.00 in0.0 mm 0.29 in7.4 mm
06:05 PM 85.1°F29.5°C 66.2°F19.0°C 53% Calm Calm 2.5 mph4.0 kmh 30.03 in1016.9 mb 0.00 in0.0 mm 0.00 in0.0 mm 0.29 in7.4 mm
06:10 PM 84.9°F29.4°C 66.2°F19.0°C 54% Calm Calm 1.3 mph2.1 kmh 30.06 in1017.9 mb 0.00 in0.0 mm 0.00 in0.0 mm 0.29 in7.4 mm
06:15 PM 84.9°F29.4°C 66.2°F19.0°C 54% Calm Calm 1.3 mph2.1 kmh 30.06 in1017.9 mb 0.00 in0.0 mm 0.00 in0.0 mm 0.29 in7.4 mm
06:20 PM 84.7°F29.3°C 68.0°F20.0°C 56% Calm Calm 1.3 mph2.1 kmh 30.06 in1017.9 mb 0.00 in0.0 mm 0.00 in0.0 mm 0.29 in7.4 mm
06:25 PM 84.7°F29.3°C 68.0°F20.0°C 56% Calm Calm 2.0 mph3.2 kmh 30.06 in1017.9 mb 0.00 in0.0 mm 0.00 in0.0 mm 0.29 in7.4 mm
06:30 PM 84.6°F29.2°C 66.2°F19.0°C 55% 0.9 mph NNW1.4 kmh NNW 2.5 mph4.0 kmh 30.06 in1017.9 mb 0.00 in0.0 mm 0.00 in0.0 mm 0.29 in7.4 mm
06:35 PM 84.4°F29.1°C 68.0°F20.0°C 56% 0.9 mph N1.4 kmh N 3.4 mph5.5 kmh 30.06 in1017.9 mb 0.00 in0.0 mm 0.00 in0.0 mm 0.29 in7.4 mm
06:40 PM 84.0°F28.9°C 68.0°F20.0°C 57% Calm Calm 3.4 mph5.5 kmh 30.06 in1017.9 mb 0.00 in0.0 mm 0.00 in0.0 mm 0.29 in7.4 mm
06:45 PM 84.0°F28.9°C 68.0°F20.0°C 57% Calm Calm 2.7 mph4.3 kmh 30.06 in1017.9 mb 0.00 in0.0 mm 0.00 in0.0 mm 0.29 in7.4 mm
06:50 PM 83.7°F28.7°C 68.0°F20.0°C 57% Calm Calm 2.7 mph4.3 kmh 30.06 in1017.9 mb 0.00 in0.0 mm 0.00 in0.0 mm 0.29 in7.4 mm
06:55 PM 83.5°F28.6°C 68.0°F20.0°C 58% Calm Calm 0.9 mph1.4 kmh 30.06 in1017.9 mb 0.00 in0.0 mm 0.00 in0.0 mm 0.29 in7.4 mm
07:00 PM 83.5°F28.6°C 68.0°F20.0°C 58% Calm Calm -- 30.06 in1017.9 mb 0.00 in0.0 mm 0.00 in0.0 mm 0.29 in7.4 mm
07:05 PM 83.3°F28.5°C 68.0°F20.0°C 58% 1.1 mph E1.8 kmh E 4.0 mph6.4 kmh 30.06 in1017.9 mb 0.00 in0.0 mm 0.00 in0.0 mm 0.29 in7.4 mm
07:10 PM 83.1°F28.4°C 68.0°F20.0°C 58% Calm Calm 4.9 mph7.9 kmh 30.06 in1017.9 mb 0.00 in0.0 mm 0.00 in0.0 mm 0.29 in7.4 mm
07:15 PM 82.9°F28.3°C 68.0°F20.0°C 59% Calm Calm 4.9 mph7.9 kmh 30.06 in1017.9 mb 0.00 in0.0 mm 0.00 in0.0 mm 0.29 in7.4 mm
07:20 PM 82.6°F28.1°C 68.0°F20.0°C 60% 1.3 mph E2.1 kmh E 2.7 mph4.3 kmh 30.06 in1017.9 mb 0.00 in0.0 mm 0.00 in0.0 mm 0.29 in7.4 mm
07:25 PM 82.2°F27.9°C 68.0°F20.0°C 60% 1.1 mph E1.8 kmh E 3.6 mph5.8 kmh 30.06 in1017.9 mb 0.00 in0.0 mm 0.00 in0.0 mm 0.29 in7.4 mm
07:30 PM 82.0°F27.8°C 68.0°F20.0°C 60% 0.9 mph E1.4 kmh E 3.6 mph5.8 kmh 30.06 in1017.9 mb 0.00 in0.0 mm 0.00 in0.0 mm 0.29 in7.4 mm
07:35 PM 81.9°F27.7°C 68.0°F20.0°C 61% Calm Calm 1.6 mph2.6 kmh 30.06 in1017.9 mb 0.00 in0.0 mm 0.00 in0.0 mm 0.29 in7.4 mm
07:40 PM 81.5°F27.5°C 68.0°F20.0°C 61% Calm Calm 1.6 mph2.6 kmh 30.06 in1017.9 mb 0.00 in0.0 mm 0.00 in0.0 mm 0.29 in7.4 mm
07:45 PM 81.5°F27.5°C 68.0°F20.0°C 61% Calm Calm -- 30.06 in1017.9 mb 0.00 in0.0 mm 0.00 in0.0 mm 0.29 in7.4 mm
07:50 PM 81.3°F27.4°C 68.0°F20.0°C 62% Calm Calm 2.0 mph3.2 kmh 30.06 in1017.9 mb 0.00 in0.0 mm 0.00 in0.0 mm 0.29 in7.4 mm
07:55 PM 81.1°F27.3°C 68.0°F20.0°C 63% Calm Calm 2.0 mph3.2 kmh 30.06 in1017.9 mb 0.00 in0.0 mm 0.00 in0.0 mm 0.29 in7.4 mm
08:00 PM 81.0°F27.2°C 68.0°F20.0°C 64% Calm Calm -- 30.06 in1017.9 mb 0.00 in0.0 mm 0.00 in0.0 mm 0.29 in7.4 mm
08:05 PM 80.8°F27.1°C 68.0°F20.0°C 64% Calm Calm -- 30.06 in1017.9 mb 0.00 in0.0 mm 0.00 in0.0 mm 0.29 in7.4 mm
08:10 PM 80.4°F26.9°C 68.0°F20.0°C 65% Calm Calm -- 30.06 in1017.9 mb 0.00 in0.0 mm 0.00 in0.0 mm 0.29 in7.4 mm
08:15 PM 80.2°F26.8°C 68.0°F20.0°C 65% Calm Calm -- 30.06 in1017.9 mb 0.00 in0.0 mm 0.00 in0.0 mm 0.29 in7.4 mm
08:20 PM 79.9°F26.6°C 68.0°F20.0°C 65% Calm Calm -- 30.06 in1017.9 mb 0.00 in0.0 mm 0.00 in0.0 mm 0.29 in7.4 mm
08:25 PM 79.7°F26.5°C 68.0°F20.0°C 65% Calm Calm -- 30.03 in1016.9 mb 0.00 in0.0 mm 0.00 in0.0 mm 0.29 in7.4 mm
08:30 PM 79.5°F26.4°C 68.0°F20.0°C 66% Calm Calm -- 30.03 in1016.9 mb 0.00 in0.0 mm 0.00 in0.0 mm 0.29 in7.4 mm
08:35 PM 79.5°F26.4°C 68.0°F20.0°C 66% Calm Calm -- 30.03 in1016.9 mb 0.00 in0.0 mm 0.00 in0.0 mm 0.29 in7.4 mm
08:40 PM 79.5°F26.4°C 68.0°F20.0°C 66% Calm Calm -- 30.06 in1017.9 mb 0.00 in0.0 mm 0.00 in0.0 mm 0.29 in7.4 mm
08:45 PM 79.3°F26.3°C 68.0°F20.0°C 66% Calm Calm -- 30.06 in1017.9 mb 0.00 in0.0 mm 0.00 in0.0 mm 0.29 in7.4 mm
08:50 PM 79.2°F26.2°C 68.0°F20.0°C 67% Calm Calm -- 30.06 in1017.9 mb 0.00 in0.0 mm 0.00 in0.0 mm 0.29 in7.4 mm
08:55 PM 78.8°F26.0°C 66.2°F19.0°C 66% Calm Calm -- 30.06 in1017.9 mb 0.00 in0.0 mm 0.00 in0.0 mm 0.29 in7.4 mm
09:00 PM 78.6°F25.9°C 66.2°F19.0°C 66% Calm Calm -- 30.06 in1017.9 mb 0.00 in0.0 mm 0.00 in0.0 mm 0.29 in7.4 mm
09:05 PM 78.4°F25.8°C 66.2°F19.0°C 67% Calm Calm -- 30.06 in1017.9 mb 0.00 in0.0 mm 0.00 in0.0 mm 0.29 in7.4 mm
09:10 PM 78.1°F25.6°C 68.0°F20.0°C 68% Calm Calm -- 30.06 in1017.9 mb 0.00 in0.0 mm 0.00 in0.0 mm 0.29 in7.4 mm
09:15 PM 78.1°F25.6°C 68.0°F20.0°C 68% Calm Calm -- 30.06 in1017.9 mb 0.00 in0.0 mm 0.00 in0.0 mm 0.29 in7.4 mm
09:20 PM 77.5°F25.3°C 66.2°F19.0°C 69% Calm Calm -- 30.06 in1017.9 mb 0.00 in0.0 mm 0.00 in0.0 mm 0.29 in7.4 mm
09:25 PM 77.2°F25.1°C 66.2°F19.0°C 70% Calm Calm -- 30.03 in1016.9 mb 0.00 in0.0 mm 0.00 in0.0 mm 0.29 in7.4 mm
09:30 PM 77.0°F25.0°C 68.0°F20.0°C 72% Calm Calm -- 30.03 in1016.9 mb 0.00 in0.0 mm 0.00 in0.0 mm 0.29 in7.4 mm
09:35 PM 76.6°F24.8°C 68.0°F20.0°C 74% Calm Calm -- 30.03 in1016.9 mb 0.00 in0.0 mm 0.00 in0.0 mm 0.29 in7.4 mm
09:40 PM 76.5°F24.7°C 69.8°F21.0°C 77% Calm Calm -- 30.06 in1017.9 mb 0.00 in0.0 mm 0.00 in0.0 mm 0.29 in7.4 mm
09:45 PM 76.5°F24.7°C 69.8°F21.0°C 77% Calm Calm -- 30.06 in1017.9 mb 0.00 in0.0 mm 0.00 in0.0 mm 0.29 in7.4 mm
09:50 PM 76.5°F24.7°C 69.8°F21.0°C 77% Calm Calm -- 30.06 in1017.9 mb 0.00 in0.0 mm 0.00 in0.0 mm 0.29 in7.4 mm
09:55 PM 76.3°F24.6°C 69.8°F21.0°C 77% Calm Calm -- 30.06 in1017.9 mb 0.00 in0.0 mm 0.00 in0.0 mm 0.29 in7.4 mm
10:00 PM 76.3°F24.6°C 69.8°F21.0°C 77% Calm Calm -- 30.06 in1017.9 mb 0.00 in0.0 mm 0.00 in0.0 mm 0.29 in7.4 mm
10:05 PM 76.1°F24.5°C 69.8°F21.0°C 77% Calm Calm -- 30.06 in1017.9 mb 0.00 in0.0 mm 0.00 in0.0 mm 0.29 in7.4 mm
10:10 PM 75.7°F24.3°C 68.0°F20.0°C 77% Calm Calm -- 30.06 in1017.9 mb 0.00 in0.0 mm 0.00 in0.0 mm 0.29 in7.4 mm
10:15 PM 75.4°F24.1°C 68.0°F20.0°C 78% Calm Calm -- 30.06 in1017.9 mb 0.00 in0.0 mm 0.00 in0.0 mm 0.29 in7.4 mm
10:20 PM 75.2°F24.0°C 68.0°F20.0°C 79% Calm Calm -- 30.06 in1017.9 mb 0.00 in0.0 mm 0.00 in0.0 mm 0.29 in7.4 mm
10:25 PM 75.0°F23.9°C 69.8°F21.0°C 80% Calm Calm -- 30.09 in1019.0 mb 0.00 in0.0 mm 0.00 in0.0 mm 0.29 in7.4 mm
10:30 PM 74.8°F23.8°C 68.0°F20.0°C 81% Calm Calm -- 30.09 in1019.0 mb 0.00 in0.0 mm 0.00 in0.0 mm 0.29 in7.4 mm
10:35 PM 74.7°F23.7°C 69.8°F21.0°C 82% Calm Calm -- 30.09 in1019.0 mb 0.00 in0.0 mm 0.00 in0.0 mm 0.29 in7.4 mm
10:40 PM 74.7°F23.7°C 69.8°F21.0°C 83% Calm Calm -- 30.06 in1017.9 mb 0.00 in0.0 mm 0.00 in0.0 mm 0.29 in7.4 mm
10:45 PM 74.3°F23.5°C 69.8°F21.0°C 83% Calm Calm -- 30.06 in1017.9 mb 0.00 in0.0 mm 0.00 in0.0 mm 0.29 in7.4 mm
10:50 PM 74.3°F23.5°C 69.8°F21.0°C 84% Calm Calm -- 30.06 in1017.9 mb 0.00 in0.0 mm 0.00 in0.0 mm 0.29 in7.4 mm
10:55 PM 74.3°F23.5°C 69.8°F21.0°C 84% Calm Calm -- 30.06 in1017.9 mb 0.00 in0.0 mm 0.00 in0.0 mm 0.29 in7.4 mm
11:00 PM 74.1°F23.4°C 69.8°F21.0°C 84% Calm Calm -- 30.06 in1017.9 mb 0.00 in0.0 mm 0.00 in0.0 mm 0.29 in7.4 mm
11:05 PM 73.8°F23.2°C 69.8°F21.0°C 84% Calm Calm -- 30.06 in1017.9 mb 0.00 in0.0 mm 0.00 in0.0 mm 0.29 in7.4 mm
11:10 PM 73.6°F23.1°C 68.0°F20.0°C 84% Calm Calm -- 30.09 in1019.0 mb 0.00 in0.0 mm 0.00 in0.0 mm 0.29 in7.4 mm
11:15 PM 73.4°F23.0°C 68.0°F20.0°C 84% Calm Calm -- 30.09 in1019.0 mb 0.00 in0.0 mm 0.00 in0.0 mm 0.29 in7.4 mm
11:20 PM 73.0°F22.8°C 68.0°F20.0°C 86% Calm Calm -- 30.09 in1019.0 mb 0.00 in0.0 mm 0.00 in0.0 mm 0.29 in7.4 mm
11:25 PM 73.0°F22.8°C 68.0°F20.0°C 85% Calm Calm -- 30.09 in1019.0 mb 0.00 in0.0 mm 0.00 in0.0 mm 0.29 in7.4 mm
11:30 PM 72.9°F22.7°C 69.8°F21.0°C 87% Calm Calm -- 30.09 in1019.0 mb 0.00 in0.0 mm 0.00 in0.0 mm 0.29 in7.4 mm
11:35 PM 72.5°F22.5°C 69.8°F21.0°C 87% Calm Calm -- 30.09 in1019.0 mb 0.00 in0.0 mm 0.00 in0.0 mm 0.29 in7.4 mm
11:40 PM 72.5°F22.5°C 69.8°F21.0°C 87% Calm Calm -- 30.09 in1019.0 mb 0.00 in0.0 mm 0.00 in0.0 mm 0.29 in7.4 mm
11:45 PM 72.1°F22.3°C 68.0°F20.0°C 87% Calm Calm -- 30.09 in1019.0 mb 0.00 in0.0 mm 0.00 in0.0 mm 0.29 in7.4 mm
11:50 PM 72.0°F22.2°C 68.0°F20.0°C 87% Calm Calm -- 30.09 in1019.0 mb 0.00 in0.0 mm 0.00 in0.0 mm 0.29 in7.4 mm
11:55 PM 72.0°F22.2°C 68.0°F20.0°C 87% Calm Calm -- 30.09 in1019.0 mb 0.00 in0.0 mm 0.00 in0.0 mm 0.29 in7.4 mm